Hartberg, Austria
Current Conditions -  °F | °C
As of 2:20 AM on Saturday 20 Dec 2014 (Local Time) from LOWG Reporting Station
Broken Clouds Broken Clouds  
Wind Chill: 37°   Ceiling: 12000
Heat Index: 37°   Visibility: 4mi
Dew Point: 37°   Wind: 3mph
Humidity: 100%   Direction: 170°S
Pressure: 30.03"   Gusts: NA
Location:  46.98°N, 16.12°E
Report Text: LOWG 200120Z AUTO 17003KT 120V280 6000 BKN120 03/03 Q1017
Loading
Personal Weather Stations






























Interactive Weather Map New forecast layout! Learn more

10-Day Weather Forecast

Advertisements
Track Severe Weather on mobile